Time;durP1;ratioP1;P1;durP2;ratioP2;P2;SDS_P1;SDS_P2;PMS_P1;PMS_P2;Temp;Humidity;BMP_temperature;BMP_pressure;BME280_temperature;BME280_humidity;BME280_pressure;Samples;Min_cycle;Max_cycle;Signal;HPM_P1;HPM_P2
2021/09/06 00:01:26;;;;;;;3.07;2.70;;;17.20;99.90;;;;;;5088801;28;20327;-75
2021/09/06 00:03:54;;;;;;;2.43;2.23;;;17.20;99.90;;;;;;5088915;28;20215;-75
2021/09/06 00:06:21;;;;;;;3.03;2.70;;;17.20;99.90;;;;;;5088351;28;20766;-75
2021/09/06 00:08:48;;;;;;;4.17;2.83;;;17.20;99.90;;;;;;5088769;28;20210;-75
2021/09/06 00:11:14;;;;;;;3.83;2.77;;;17.20;99.90;;;;;;5088581;28;20241;-75
2021/09/06 00:13:42;;;;;;;2.80;2.43;;;17.10;99.90;;;;;;5088745;28;20199;-75
2021/09/06 00:16:09;;;;;;;3.10;2.80;;;17.00;99.90;;;;;;5088288;28;20227;-75
2021/09/06 00:18:36;;;;;;;3.33;2.90;;;17.00;99.90;;;;;;5088794;28;20203;-75
2021/09/06 00:21:06;;;;;;;3.03;2.50;;;17.00;99.90;;;;;;5088707;28;20202;-75
2021/09/06 00:23:33;;;;;;;3.03;2.80;;;17.00;99.90;;;;;;5088659;28;20256;-75
2021/09/06 00:26:00;;;;;;;4.43;2.60;;;17.10;99.90;;;;;;5088519;28;20235;-74
2021/09/06 00:28:27;;;;;;;2.93;2.73;;;17.00;99.90;;;;;;5088259;28;20206;-74
2021/09/06 00:30:54;;;;;;;5.70;3.10;;;17.00;99.90;;;;;;5088544;28;20210;-74
2021/09/06 00:33:21;;;;;;;3.23;2.33;;;17.00;99.90;;;;;;5088365;28;20238;-75
2021/09/06 00:35:48;;;;;;;3.67;2.93;;;17.00;99.90;;;;;;5088537;28;20268;-74
2021/09/06 00:38:17;;;;;;;4.90;2.90;;;17.00;99.90;;;;;;5088347;28;20310;-74
2021/09/06 00:40:44;;;;;;;4.17;2.70;;;16.90;99.90;;;;;;5091434;28;20646;-74
2021/09/06 00:43:11;;;;;;;3.57;3.27;;;16.90;99.90;;;;;;5092368;28;20209;-74
2021/09/06 00:45:38;;;;;;;4.50;2.70;;;16.90;99.90;;;;;;5092742;28;20252;-74
2021/09/06 00:48:05;;;;;;;2.93;2.73;;;16.80;99.90;;;;;;5092891;28;20202;-74
2021/09/06 00:50:32;;;;;;;4.40;2.67;;;16.80;99.90;;;;;;5092440;28;20256;-74
2021/09/06 00:53:00;;;;;;;3.00;2.70;;;16.70;99.90;;;;;;5092685;28;20218;-74
2021/09/06 00:55:28;;;;;;;3.50;3.20;;;16.70;99.90;;;;;;5091916;28;20238;-74
2021/09/06 00:57:55;;;;;;;3.07;2.87;;;16.70;99.90;;;;;;5092339;28;20264;-74
2021/09/06 01:00:22;;;;;;;2.90;2.70;;;16.70;99.90;;;;;;5091973;28;20202;-74
2021/09/06 01:02:49;;;;;;;2.70;2.50;;;16.70;99.90;;;;;;5092378;28;20211;-74
2021/09/06 01:05:16;;;;;;;4.40;2.70;;;16.80;99.90;;;;;;5092172;28;20211;-74
2021/09/06 01:07:43;;;;;;;2.80;2.60;;;16.70;99.90;;;;;;5092264;28;20244;-74
2021/09/06 01:10:12;;;;;;;3.10;2.70;;;16.60;99.90;;;;;;5092298;28;20272;-74
2021/09/06 01:12:41;;;;;;;2.87;2.67;;;16.60;99.90;;;;;;5092608;28;20218;-74
2021/09/06 01:15:09;;;;;;;3.10;2.90;;;16.70;99.90;;;;;;5091469;28;20693;-74
2021/09/06 01:17:37;;;;;;;3.30;3.00;;;16.60;99.90;;;;;;5091900;28;20252;-74
2021/09/06 01:20:05;;;;;;;2.73;2.53;;;16.60;99.90;;;;;;5091899;28;20214;-74
2021/09/06 01:22:31;;;;;;;3.30;3.00;;;16.60;99.90;;;;;;5091962;28;20370;-74
2021/09/06 01:24:58;;;;;;;2.80;2.60;;;16.60;99.90;;;;;;5091799;28;20203;-74
2021/09/06 01:27:26;;;;;;;2.80;2.60;;;16.60;99.90;;;;;;5091634;28;20490;-74
2021/09/06 01:29:54;;;;;;;3.00;2.80;;;16.70;99.90;;;;;;5092127;28;20214;-75
2021/09/06 01:32:20;;;;;;;4.37;3.00;;;16.60;99.90;;;;;;5091577;28;20256;-75
2021/09/06 01:34:47;;;;;;;3.63;3.10;;;16.60;99.90;;;;;;5091766;28;20209;-74
2021/09/06 01:37:14;;;;;;;3.20;3.00;;;16.60;99.90;;;;;;5091413;28;20267;-74
2021/09/06 01:39:40;;;;;;;3.13;2.73;;;16.50;99.90;;;;;;5091417;28;20359;-74
2021/09/06 01:42:07;;;;;;;2.93;2.63;;;16.30;99.90;;;;;;5091344;28;20227;-74
2021/09/06 01:44:36;;;;;;;3.20;2.90;;;16.30;99.90;;;;;;5091356;28;20248;-74
2021/09/06 01:47:02;;;;;;;4.60;2.90;;;16.30;99.90;;;;;;5091501;28;20691;-74
2021/09/06 01:49:29;;;;;;;2.90;2.70;;;16.40;99.90;;;;;;5091373;28;20207;-74
2021/09/06 01:51:56;;;;;;;3.43;2.93;;;16.40;99.90;;;;;;5091338;28;20238;-74
2021/09/06 01:54:22;;;;;;;3.60;2.90;;;16.40;99.90;;;;;;5090881;28;20347;-75
2021/09/06 01:56:49;;;;;;;4.00;3.20;;;16.30;99.90;;;;;;5091030;28;20236;-75
2021/09/06 01:59:16;;;;;;;2.93;2.73;;;16.30;99.90;;;;;;5091306;28;20291;-75
2021/09/06 02:01:45;;;;;;;3.00;2.80;;;16.30;99.90;;;;;;5091297;28;20207;-75
2021/09/06 02:04:11;;;;;;;3.20;2.60;;;16.30;99.90;;;;;;5091251;28;20276;-74
2021/09/06 02:06:38;;;;;;;2.97;2.73;;;16.30;99.90;;;;;;5090918;28;20254;-75
2021/09/06 02:09:05;;;;;;;4.07;3.00;;;16.30;99.90;;;;;;5091059;28;20206;-75
2021/09/06 02:11:32;;;;;;;3.10;2.90;;;16.30;99.90;;;;;;5090683;28;20763;-75
2021/09/06 02:13:59;;;;;;;3.27;2.77;;;16.30;99.90;;;;;;5090989;28;20358;-74
2021/09/06 02:16:26;;;;;;;3.13;2.93;;;16.30;99.90;;;;;;5090505;28;20774;-75
2021/09/06 02:18:54;;;;;;;5.53;2.83;;;16.20;99.90;;;;;;5090660;28;20207;-74
2021/09/06 02:21:20;;;;;;;3.73;3.30;;;16.20;99.90;;;;;;5090276;28;20737;-74
2021/09/06 02:23:48;;;;;;;3.13;2.77;;;16.20;99.90;;;;;;5090436;28;20715;-74
2021/09/06 02:26:15;;;;;;;2.80;2.60;;;16.10;99.90;;;;;;5090840;28;20256;-74
2021/09/06 02:28:41;;;;;;;3.13;2.93;;;16.10;99.90;;;;;;5090831;28;20207;-74
2021/09/06 02:31:08;;;;;;;4.40;2.87;;;16.10;99.90;;;;;;5090649;28;20207;-74
2021/09/06 02:33:35;;;;;;;3.20;2.73;;;16.10;99.90;;;;;;5090234;28;20210;-74
2021/09/06 02:36:03;;;;;;;7.63;3.50;;;16.00;99.90;;;;;;5090627;28;20311;-74
2021/09/06 02:38:32;;;;;;;3.87;2.93;;;16.00;99.90;;;;;;5089972;28;20226;-74
2021/09/06 02:40:59;;;;;;;3.30;3.00;;;16.00;99.90;;;;;;5090130;28;20222;-74
2021/09/06 02:43:25;;;;;;;3.70;2.77;;;16.00;99.90;;;;;;5089803;28;20750;-74
2021/09/06 02:45:52;;;;;;;3.00;2.77;;;16.00;99.90;;;;;;5090102;28;20206;-74
2021/09/06 02:48:19;;;;;;;3.30;3.10;;;15.90;99.90;;;;;;5090216;28;20234;-74
2021/09/06 02:50:45;;;;;;;3.50;3.20;;;15.90;99.90;;;;;;5090029;28;20378;-75
2021/09/06 02:53:13;;;;;;;3.70;2.97;;;15.90;99.90;;;;;;5089475;28;20963;-73
2021/09/06 02:55:40;;;;;;;2.87;2.67;;;15.90;99.90;;;;;;5089372;28;20236;-73
2021/09/06 02:58:07;;;;;;;3.10;2.77;;;15.90;99.90;;;;;;5089811;28;20218;-76
2021/09/06 03:00:33;;;;;;;3.20;3.00;;;15.80;99.90;;;;;;5089663;28;20202;-74
2021/09/06 03:03:00;;;;;;;3.90;2.60;;;15.80;99.90;;;;;;5089359;28;20203;-74
2021/09/06 03:05:27;;;;;;;3.13;2.87;;;15.80;99.90;;;;;;5076267;28;20208;-74
2021/09/06 03:07:53;;;;;;;2.70;2.60;;;15.80;99.90;;;;;;5065587;28;20239;-74
2021/09/06 03:10:21;;;;;;;2.90;2.70;;;15.70;99.90;;;;;;5065771;28;20203;-74
2021/09/06 03:12:48;;;;;;;2.83;2.47;;;15.70;99.90;;;;;;5065460;28;20666;-74
2021/09/06 03:15:14;;;;;;;3.30;2.80;;;15.70;99.90;;;;;;5065457;28;20207;-74
2021/09/06 03:17:41;;;;;;;3.40;3.10;;;15.70;99.90;;;;;;5065531;28;20261;-74
2021/09/06 03:20:09;;;;;;;3.00;2.80;;;15.70;99.90;;;;;;5065634;28;20207;-76
2021/09/06 03:22:35;;;;;;;3.17;2.97;;;15.60;99.90;;;;;;5065097;28;20258;-76
2021/09/06 03:25:02;;;;;;;3.20;3.00;;;15.50;99.90;;;;;;5065179;28;20674;-76
2021/09/06 03:27:30;;;;;;;4.40;3.27;;;15.40;99.90;;;;;;5065228;28;20267;-74
2021/09/06 03:29:57;;;;;;;3.47;2.90;;;15.50;99.90;;;;;;5065095;28;20261;-74
2021/09/06 03:32:24;;;;;;;2.90;2.70;;;15.40;99.90;;;;;;5064851;28;20700;-74
2021/09/06 03:34:50;;;;;;;3.20;2.83;;;15.40;99.90;;;;;;5065439;28;20207;-73
2021/09/06 03:37:17;;;;;;;4.87;3.03;;;15.40;99.90;;;;;;5065238;28;20269;-74
2021/09/06 03:39:44;;;;;;;4.33;3.03;;;15.40;99.90;;;;;;5064941;28;20689;-74
2021/09/06 03:42:10;;;;;;;3.03;2.83;;;15.40;99.90;;;;;;5065227;28;21041;-74
2021/09/06 03:44:38;;;;;;;3.63;2.70;;;15.40;99.90;;;;;;5064929;28;20207;-74
2021/09/06 03:47:05;;;;;;;5.37;2.90;;;15.40;99.90;;;;;;5064959;28;20228;-74
2021/09/06 03:49:32;;;;;;;3.97;3.07;;;15.40;99.90;;;;;;5064580;28;20625;-74
2021/09/06 03:51:58;;;;;;;3.97;3.67;;;15.30;99.90;;;;;;5065056;28;20203;-74
2021/09/06 03:54:25;;;;;;;5.20;3.50;;;15.30;99.90;;;;;;5064440;28;20252;-74
2021/09/06 03:56:52;;;;;;;3.37;3.13;;;15.30;99.90;;;;;;5064740;28;20199;-74
2021/09/06 03:59:19;;;;;;;3.47;3.20;;;15.30;99.90;;;;;;5069721;28;20218;-74
2021/09/06 04:01:47;;;;;;;4.50;3.30;;;15.30;99.90;;;;;;5083717;28;20210;-74
2021/09/06 04:04:14;;;;;;;3.73;3.43;;;15.30;99.90;;;;;;5087724;28;20203;-74
2021/09/06 04:06:41;;;;;;;3.60;3.30;;;15.30;99.90;;;;;;5076902;28;20228;-74
2021/09/06 04:09:07;;;;;;;3.53;3.23;;;15.30;99.90;;;;;;5078289;28;20728;-74
2021/09/06 04:11:34;;;;;;;3.60;3.27;;;15.30;99.90;;;;;;5076591;28;20248;-74
2021/09/06 04:14:00;;;;;;;3.47;3.13;;;15.20;99.90;;;;;;5086819;28;20211;-74
2021/09/06 04:16:27;;;;;;;3.93;3.30;;;15.20;99.90;;;;;;5078736;28;20254;-74
2021/09/06 04:18:55;;;;;;;3.20;2.90;;;15.20;99.90;;;;;;5075167;28;20230;-73
2021/09/06 04:21:22;;;;;;;5.67;3.33;;;15.20;99.90;;;;;;5075678;28;20223;-74
2021/09/06 04:23:48;;;;;;;4.10;3.40;;;15.20;99.90;;;;;;5078885;28;20199;-74
2021/09/06 04:26:15;;;;;;;4.40;3.07;;;15.20;99.90;;;;;;5087147;28;20207;-74
2021/09/06 04:28:42;;;;;;;3.63;3.27;;;15.20;99.90;;;;;;5087322;28;20233;-74
2021/09/06 04:31:08;;;;;;;4.07;3.33;;;15.20;99.90;;;;;;5076079;28;20245;-74
2021/09/06 04:33:35;;;;;;;4.30;3.63;;;15.20;99.90;;;;;;5087230;28;20206;-74
2021/09/06 04:36:03;;;;;;;4.17;3.83;;;15.20;99.90;;;;;;5087501;28;20199;-74
2021/09/06 04:38:30;;;;;;;4.03;3.47;;;15.10;99.90;;;;;;5075934;28;20219;-74
2021/09/06 04:40:56;;;;;;;4.67;3.67;;;15.10;99.90;;;;;;5087261;28;20264;-74
2021/09/06 04:43:23;;;;;;;3.60;3.30;;;15.10;99.90;;;;;;5086964;28;20238;-74
2021/09/06 04:45:49;;;;;;;3.47;3.17;;;15.10;99.90;;;;;;5079405;28;20236;-74
2021/09/06 04:48:16;;;;;;;5.67;3.63;;;15.10;99.90;;;;;;5076911;28;20229;-74
2021/09/06 04:50:43;;;;;;;4.53;3.40;;;15.10;99.90;;;;;;5077817;28;20199;-74
2021/09/06 04:53:11;;;;;;;3.40;3.13;;;15.10;99.90;;;;;;5087518;28;20248;-74
2021/09/06 04:55:37;;;;;;;3.47;3.00;;;15.10;99.90;;;;;;5078238;28;20230;-74
2021/09/06 04:58:04;;;;;;;3.53;3.23;;;15.00;99.90;;;;;;5076124;28;20205;-74
2021/09/06 05:00:31;;;;;;;3.63;3.40;;;15.00;99.90;;;;;;5084253;28;20286;-74
2021/09/06 05:02:57;;;;;;;4.87;3.50;;;15.10;99.90;;;;;;5087268;28;20546;-74
2021/09/06 05:05:24;;;;;;;9.43;3.60;;;15.10;99.90;;;;;;5075682;28;20568;-73
2021/09/06 05:07:51;;;;;;;7.67;3.57;;;15.10;99.90;;;;;;5084392;28;20471;-74
2021/09/06 05:10:19;;;;;;;3.60;3.13;;;15.10;99.90;;;;;;5077069;28;20886;-73
2021/09/06 05:12:45;;;;;;;5.17;3.20;;;15.10;99.90;;;;;;5072189;28;20266;-73
2021/09/06 05:15:12;;;;;;;3.60;3.30;;;15.10;99.90;;;;;;5086972;28;21003;-73
2021/09/06 05:17:39;;;;;;;3.30;3.00;;;15.10;99.90;;;;;;5086948;28;20288;-73
2021/09/06 05:20:07;;;;;;;3.83;3.07;;;15.10;99.90;;;;;;5086976;28;20199;-73
2021/09/06 05:22:34;;;;;;;3.63;3.27;;;15.10;99.90;;;;;;5077121;28;20195;-73
2021/09/06 05:25:00;;;;;;;4.30;3.90;;;15.10;99.90;;;;;;5077864;28;20255;-74
2021/09/06 05:27:28;;;;;;;4.50;3.00;;;15.10;99.90;;;;;;5078582;28;20223;-74
2021/09/06 05:29:55;;;;;;;4.83;3.70;;;15.10;99.90;;;;;;5090571;28;20220;-74
2021/09/06 05:32:21;;;;;;;4.67;3.47;;;15.10;99.90;;;;;;5090639;28;20207;-74
2021/09/06 05:34:48;;;;;;;3.80;3.50;;;15.10;99.90;;;;;;5090232;28;20677;-74
2021/09/06 05:37:14;;;;;;;3.83;3.23;;;15.20;99.90;;;;;;5082092;28;20733;-74
2021/09/06 05:39:41;;;;;;;4.93;3.53;;;15.20;99.90;;;;;;5090548;28;20256;-74
2021/09/06 05:42:08;;;;;;;5.00;3.93;;;15.20;99.90;;;;;;5090767;28;20202;-74
2021/09/06 05:44:36;;;;;;;8.90;3.80;;;15.30;99.90;;;;;;5080390;28;20195;-74
2021/09/06 05:47:03;;;;;;;6.43;3.80;;;15.30;99.90;;;;;;5080908;28;20721;-74
2021/09/06 05:49:30;;;;;;;5.27;3.13;;;15.30;99.90;;;;;;5078062;28;20226;-74
2021/09/06 05:51:56;;;;;;;3.93;3.63;;;15.30;99.90;;;;;;5078169;28;20203;-74
2021/09/06 05:54:24;;;;;;;4.73;3.60;;;15.40;99.90;;;;;;5078108;28;20203;-74
2021/09/06 05:56:50;;;;;;;4.80;3.33;;;15.40;99.90;;;;;;5087596;28;20286;-75
2021/09/06 05:59:17;;;;;;;7.00;3.83;;;15.30;99.90;;;;;;5085309;28;20208;-74
2021/09/06 06:01:45;;;;;;;3.87;3.57;;;15.30;99.90;;;;;;5090309;28;20264;-73
2021/09/06 06:04:12;;;;;;;3.87;3.50;;;15.40;99.90;;;;;;5080764;28;20209;-73
2021/09/06 06:06:38;;;;;;;3.57;3.27;;;15.50;99.90;;;;;;5076630;28;20208;-74
2021/09/06 06:09:05;;;;;;;3.57;3.27;;;15.50;99.90;;;;;;5090079;28;20222;-73
2021/09/06 06:11:32;;;;;;;3.80;3.43;;;15.50;99.90;;;;;;5086784;28;20209;-74
2021/09/06 06:13:59;;;;;;;4.30;3.00;;;15.50;99.90;;;;;;5089639;28;20195;-74
2021/09/06 06:16:25;;;;;;;4.33;3.73;;;15.60;99.90;;;;;;5084022;28;20223;-73
2021/09/06 06:18:53;;;;;;;4.17;3.50;;;15.60;99.90;;;;;;5086707;28;20206;-74
2021/09/06 06:21:22;;;;;;;7.43;3.53;;;15.60;99.90;;;;;;5089440;28;20211;-74
2021/09/06 06:23:48;;;;;;;4.83;3.27;;;15.60;99.90;;;;;;5089312;28;20206;-73
2021/09/06 06:26:16;;;;;;;4.63;3.27;;;15.60;99.90;;;;;;5087102;28;20589;-73
2021/09/06 06:28:43;;;;;;;3.63;3.33;;;15.70;99.90;;;;;;5078728;28;20227;-73
2021/09/06 06:31:10;;;;;;;3.80;3.37;;;15.70;99.90;;;;;;5080251;28;20252;-73
2021/09/06 06:33:36;;;;;;;4.73;4.00;;;15.70;99.90;;;;;;5080074;28;20210;-73
2021/09/06 06:36:05;;;;;;;3.20;2.90;;;15.70;99.90;;;;;;5077708;28;20206;-74
2021/09/06 06:38:33;;;;;;;4.00;3.53;;;15.70;99.90;;;;;;5085703;28;20219;-74
2021/09/06 06:41:00;;;;;;;4.13;3.03;;;15.70;99.90;;;;;;5089332;28;20275;-73
2021/09/06 06:43:27;;;;;;;3.57;3.17;;;15.80;99.90;;;;;;5089125;28;20194;-74
2021/09/06 06:45:53;;;;;;;3.73;3.43;;;15.80;99.90;;;;;;5079407;28;20191;-73
2021/09/06 06:48:20;;;;;;;6.07;3.50;;;15.80;99.90;;;;;;5068814;28;20227;-74
2021/09/06 06:50:47;;;;;;;4.07;3.50;;;15.80;99.90;;;;;;5069296;28;20257;-76
2021/09/06 06:53:14;;;;;;;4.00;3.17;;;15.80;99.90;;;;;;5069329;28;20292;-77
2021/09/06 06:55:41;;;;;;;5.70;3.40;;;15.80;99.90;;;;;;5068495;28;20714;-74
2021/09/06 06:58:08;;;;;;;4.33;3.37;;;15.80;99.90;;;;;;5068836;28;20745;-73
2021/09/06 07:00:34;;;;;;;4.00;3.50;;;15.80;99.90;;;;;;5069043;28;20211;-73
2021/09/06 07:03:01;;;;;;;4.50;3.20;;;15.80;99.90;;;;;;5068976;28;20658;-73
2021/09/06 07:05:28;;;;;;;4.50;3.40;;;15.90;99.90;;;;;;5068484;28;20834;-73
2021/09/06 07:07:54;;;;;;;4.80;3.50;;;15.90;99.90;;;;;;5068871;28;20231;-73
2021/09/06 07:10:22;;;;;;;3.60;3.30;;;16.00;99.90;;;;;;5068381;28;20666;-73
2021/09/06 07:12:49;;;;;;;3.90;3.07;;;16.10;99.90;;;;;;5068103;28;20611;-73
2021/09/06 07:15:18;;;;;;;3.50;3.20;;;16.10;99.90;;;;;;5068707;28;20227;-73
2021/09/06 07:17:45;;;;;;;3.67;3.20;;;16.10;99.90;;;;;;5068673;28;20231;-73
2021/09/06 07:20:12;;;;;;;3.80;3.50;;;16.10;99.90;;;;;;5068577;28;20208;-73
2021/09/06 07:22:39;;;;;;;3.90;3.33;;;16.10;99.90;;;;;;5068208;28;20256;-73
2021/09/06 07:25:06;;;;;;;3.33;3.03;;;16.20;99.90;;;;;;5068219;28;20257;-73
2021/09/06 07:27:35;;;;;;;3.17;2.97;;;16.20;99.90;;;;;;5068068;28;20665;-73
2021/09/06 07:30:02;;;;;;;5.80;3.40;;;16.30;99.90;;;;;;5068676;28;20774;-73
2021/09/06 07:32:28;;;;;;;3.63;3.23;;;16.40;99.90;;;;;;5068308;28;20214;-73
2021/09/06 07:34:55;;;;;;;3.47;3.17;;;16.50;99.90;;;;;;5068420;28;20234;-74
2021/09/06 07:37:21;;;;;;;4.03;3.27;;;16.40;99.90;;;;;;5068270;28;20223;-73
2021/09/06 07:39:48;;;;;;;5.13;3.50;;;16.50;99.90;;;;;;5067970;28;20231;-73
2021/09/06 07:42:15;;;;;;;4.37;3.53;;;16.50;99.90;;;;;;5068114;28;20207;-73
2021/09/06 07:44:43;;;;;;;3.70;3.40;;;16.60;99.90;;;;;;5067926;28;20677;-73
2021/09/06 07:47:11;;;;;;;5.47;3.43;;;16.70;99.90;;;;;;5068144;28;20681;-76
2021/09/06 07:49:39;;;;;;;4.10;3.70;;;16.60;99.90;;;;;;5069322;28;20770;-78
2021/09/06 07:52:06;;;;;;;8.33;3.90;;;16.60;99.90;;;;;;5088036;28;20304;-73
2021/09/06 07:54:33;;;;;;;3.63;3.33;;;16.60;99.90;;;;;;5087194;28;20239;-73
2021/09/06 07:56:59;;;;;;;6.50;3.47;;;16.70;99.90;;;;;;5087811;28;20226;-73
2021/09/06 07:59:26;;;;;;;5.97;3.37;;;16.80;99.90;;;;;;5078166;28;20253;-73
2021/09/06 08:01:54;;;;;;;3.90;3.60;;;16.90;99.90;;;;;;5078167;28;20207;-73
2021/09/06 08:04:21;;;;;;;4.53;3.80;;;17.00;99.90;;;;;;5087295;28;20195;-73
2021/09/06 08:06:47;;;;;;;5.60;3.43;;;17.10;99.90;;;;;;5087449;28;20208;-73
2021/09/06 08:09:14;;;;;;;5.70;3.73;;;17.10;99.90;;;;;;5076105;28;20268;-73
2021/09/06 08:11:45;;;;;;;5.97;3.90;;;17.20;99.90;;;;;;5087433;28;20201;-73
2021/09/06 08:14:12;;;;;;;3.80;3.50;;;17.30;99.90;;;;;;5077770;28;20197;-73
2021/09/06 08:16:39;;;;;;;3.70;3.40;;;17.40;99.90;;;;;;5070143;28;20222;-73
2021/09/06 08:19:07;;;;;;;5.03;3.50;;;17.40;99.90;;;;;;5067808;28;20207;-73
2021/09/06 08:21:34;;;;;;;5.80;3.50;;;17.50;99.90;;;;;;5067496;28;20222;-73
2021/09/06 08:24:01;;;;;;;6.23;3.80;;;17.40;99.90;;;;;;5067393;28;20670;-73
2021/09/06 08:26:27;;;;;;;3.90;3.60;;;17.50;99.90;;;;;;5078946;28;20268;-73
2021/09/06 08:28:54;;;;;;;3.90;3.50;;;17.50;99.90;;;;;;5087024;28;20559;-73
2021/09/06 08:31:21;;;;;;;4.00;3.70;;;17.60;99.90;;;;;;5087462;28;20283;-73
2021/09/06 08:33:48;;;;;;;3.80;3.43;;;17.60;99.90;;;;;;5073651;28;20447;-73
2021/09/06 08:36:15;;;;;;;4.83;3.80;;;17.70;99.90;;;;;;5087214;28;20733;-73
2021/09/06 08:38:42;;;;;;;6.00;3.30;;;17.70;99.90;;;;;;5079045;28;20247;-73
2021/09/06 08:41:09;;;;;;;5.40;3.80;;;17.80;99.90;;;;;;5081468;28;20652;-73
2021/09/06 08:43:36;;;;;;;5.60;3.50;;;17.90;99.90;;;;;;5078814;28;20714;-73
2021/09/06 08:46:03;;;;;;;3.77;3.47;;;18.00;99.90;;;;;;5087094;28;20230;-73
2021/09/06 08:48:30;;;;;;;4.93;3.90;;;18.00;99.90;;;;;;5087089;28;20272;-73
2021/09/06 08:50:57;;;;;;;4.43;3.90;;;18.10;99.90;;;;;;5087267;28;20252;-73
2021/09/06 08:53:25;;;;;;;3.90;3.60;;;18.20;99.90;;;;;;5081644;28;20248;-73
2021/09/06 08:55:54;;;;;;;4.20;3.80;;;18.20;99.90;;;;;;5081418;28;20268;-73
2021/09/06 08:58:20;;;;;;;3.90;3.60;;;18.30;99.90;;;;;;5081864;28;20657;-74
2021/09/06 09:00:49;;;;;;;4.70;3.63;;;18.30;99.90;;;;;;5088487;28;20217;-73
2021/09/06 09:03:16;;;;;;;4.53;3.97;;;18.40;99.90;;;;;;5091164;28;20278;-73
2021/09/06 09:05:59;;;;;;;4.70;3.80;;;18.40;99.90;;;;;;5091099;28;20597;-73
2021/09/06 09:08:27;;;;;;;4.40;4.00;;;18.50;99.90;;;;;;5080459;28;20187;-75
2021/09/06 09:10:59;;;;;;;4.53;4.03;;;18.60;99.90;;;;;;5087360;28;20657;-75
2021/09/06 09:13:30;;;;;;;4.87;3.80;;;18.60;99.90;;;;;;5084972;28;20191;-75
2021/09/06 09:15:57;;;;;;;4.30;3.90;;;18.70;99.90;;;;;;5082148;28;20253;-73
2021/09/06 09:18:25;;;;;;;4.10;3.70;;;18.70;99.90;;;;;;5090654;28;20207;-73
2021/09/06 09:20:58;;;;;;;7.90;4.30;;;18.80;99.90;;;;;;5076676;28;20292;-73
2021/09/06 09:23:37;;;;;;;5.67;4.17;;;18.90;99.90;;;;;;5088667;28;20197;-74
2021/09/06 09:26:04;;;;;;;4.10;3.80;;;18.90;99.90;;;;;;5089062;28;20245;-73
2021/09/06 09:28:31;;;;;;;3.93;3.63;;;19.00;99.90;;;;;;5079285;28;20609;-73
2021/09/06 09:31:06;;;;;;;5.00;3.90;;;19.00;99.90;;;;;;5086880;28;20245;-73
2021/09/06 09:33:39;;;;;;;5.13;4.30;;;19.10;99.90;;;;;;5090182;28;20671;-73
2021/09/06 09:36:06;;;;;;;4.63;4.00;;;19.20;99.90;;;;;;5090541;28;20363;-73
2021/09/06 09:38:37;;;;;;;4.40;4.07;;;19.30;99.90;;;;;;5090411;28;20837;-74
2021/09/06 09:41:12;;;;;;;4.90;4.00;;;19.30;99.90;;;;;;5081959;28;20227;-73
2021/09/06 09:43:38;;;;;;;4.80;4.10;;;19.30;99.90;;;;;;5087554;28;20633;-73
2021/09/06 09:46:05;;;;;;;6.30;4.03;;;19.40;99.90;;;;;;5090420;28;20199;-73
2021/09/06 09:48:32;;;;;;;4.00;3.60;;;19.50;99.90;;;;;;5089967;28;20729;-74
2021/09/06 09:50:58;;;;;;;4.63;4.33;;;19.50;99.90;;;;;;5087974;28;20243;-73
2021/09/06 09:53:26;;;;;;;4.27;3.87;;;19.50;99.90;;;;;;5090219;28;20242;-73
2021/09/06 09:55:54;;;;;;;5.20;4.40;;;19.60;99.90;;;;;;5089732;28;20722;-73
2021/09/06 09:58:21;;;;;;;4.87;4.37;;;19.70;99.90;;;;;;5090166;28;20203;-73
2021/09/06 10:00:48;;;;;;;5.40;4.87;;;19.70;99.90;;;;;;5082408;28;20252;-73
2021/09/06 10:03:18;;;;;;;6.23;4.33;;;19.70;99.90;;;;;;5089811;28;20199;-73
2021/09/06 10:05:50;;;;;;;4.27;3.97;;;19.70;99.90;;;;;;5090041;28;20187;-73
2021/09/06 10:08:18;;;;;;;4.70;4.30;;;19.80;99.90;;;;;;5089807;28;20194;-73
2021/09/06 10:10:45;;;;;;;4.53;4.00;;;19.80;99.90;;;;;;5089742;28;20231;-74
2021/09/06 10:13:15;;;;;;;4.77;4.30;;;19.90;99.90;;;;;;5089833;28;20268;-74
2021/09/06 10:15:43;;;;;;;5.17;4.77;;;20.00;99.90;;;;;;5090054;28;20219;-73
2021/09/06 10:18:18;;;;;;;4.40;4.00;;;20.00;99.90;;;;;;5081617;28;20191;-74
2021/09/06 10:20:45;;;;;;;7.70;4.57;;;20.10;99.90;;;;;;5082194;28;20202;-74
2021/09/06 10:23:13;;;;;;;4.50;4.10;;;20.10;99.90;;;;;;5089745;28;20199;-74
2021/09/06 10:25:41;;;;;;;5.22;4.55;;;20.20;99.90;;;;;;5086608;28;20201;-74
2021/09/06 10:28:13;;;;;;;5.37;4.20;;;20.20;99.90;;;;;;5076389;28;20196;-74
2021/09/06 10:30:42;;;;;;;9.20;4.27;;;20.30;99.90;;;;;;5077388;28;20215;-71
2021/09/06 10:33:22;;;;;;;6.07;4.33;;;20.40;99.90;;;;;;5080753;28;20264;-72
2021/09/06 10:35:49;;;;;;;5.40;4.43;;;20.40;99.90;;;;;;5088020;28;20199;-72
2021/09/06 10:38:16;;;;;;;4.60;4.30;;;20.50;99.90;;;;;;5089194;28;20218;-72
2021/09/06 10:40:45;;;;;;;4.67;4.27;;;20.60;99.90;;;;;;5079559;28;20227;-72
2021/09/06 10:43:16;;;;;;;4.90;4.50;;;20.70;99.90;;;;;;5077256;28;20608;-72
2021/09/06 10:45:47;;;;;;;5.67;4.47;;;20.80;99.90;;;;;;5078558;28;20256;-72
2021/09/06 10:48:19;;;;;;;5.03;4.53;;;20.90;99.90;;;;;;5080896;28;20249;-72
2021/09/06 10:50:46;;;;;;;8.55;4.25;;;21.00;99.90;;;;;;5086249;28;20693;-72
2021/09/06 10:53:17;;;;;;;4.95;4.45;;;21.10;99.90;;;;;;5089309;28;20543;-72
2021/09/06 10:55:47;;;;;;;6.88;4.70;;;21.20;99.90;;;;;;5078979;28;20926;-72
2021/09/06 10:58:13;;;;;;;4.75;4.35;;;21.30;99.90;;;;;;5079392;28;20562;-72
2021/09/06 11:00:40;;;;;;;5.45;4.80;;;21.40;99.90;;;;;;5086041;28;20191;-73
2021/09/06 11:03:08;;;;;;;9.00;4.60;;;21.50;99.90;;;;;;5077653;28;20230;-72
2021/09/06 11:05:35;;;;;;;4.75;4.45;;;21.50;99.90;;;;;;5088199;28;20272;-72
2021/09/06 11:08:05;;;;;;;5.07;4.18;;;21.60;99.90;;;;;;5087921;28;20203;-75
2021/09/06 11:10:32;;;;;;;4.38;4.05;;;21.80;99.90;;;;;;5086792;28;20218;-75
2021/09/06 11:13:01;;;;;;;4.70;4.30;;;21.90;99.90;;;;;;5089261;28;20293;-74
2021/09/06 11:15:29;;;;;;;4.57;4.18;;;22.00;99.90;;;;;;5088839;28;20223;-72
2021/09/06 11:17:57;;;;;;;4.93;4.53;;;22.10;99.90;;;;;;5088060;28;20256;-72
2021/09/06 11:20:25;;;;;;;5.82;4.80;;;22.20;99.90;;;;;;5088404;28;20252;-72
2021/09/06 11:22:52;;;;;;;6.13;4.55;;;22.30;99.90;;;;;;5079869;28;20651;-72
2021/09/06 11:25:24;;;;;;;5.32;4.82;;;22.40;99.90;;;;;;5088027;28;20203;-72
2021/09/06 11:27:51;;;;;;;7.18;5.25;;;22.40;99.90;;;;;;5077132;28;20712;-71
2021/09/06 11:30:22;;;;;;;5.95;5.38;;;22.30;99.90;;;;;;5087760;28;20226;-72
2021/09/06 11:32:49;;;;;;;8.60;5.20;;;22.30;99.90;;;;;;5085901;28;20589;-72
2021/09/06 11:35:17;;;;;;;4.90;4.50;;;22.40;99.90;;;;;;5088373;28;20200;-71
2021/09/06 11:37:45;;;;;;;5.18;4.68;;;22.50;99.90;;;;;;5078816;28;21118;-71
2021/09/06 11:40:12;;;;;;;5.47;4.82;;;22.60;99.90;;;;;;5075711;28;20215;-72
2021/09/06 11:42:39;;;;;;;5.80;5.28;;;22.70;99.90;;;;;;5075695;28;20740;-71
2021/09/06 11:45:09;;;;;;;7.50;4.95;;;22.90;99.90;;;;;;5087406;28;20611;-72
2021/09/06 11:47:37;;;;;;;5.18;4.68;;;23.00;99.90;;;;;;5087958;28;20287;-72
2021/09/06 11:50:07;;;;;;;6.68;5.43;;;23.20;99.90;;;;;;5087859;28;20268;-72
2021/09/06 11:52:35;;;;;;;9.70;5.35;;;23.30;99.90;;;;;;5087445;28;20256;-72
2021/09/06 11:55:05;;;;;;;5.40;4.90;;;23.40;99.90;;;;;;5087732;28;20234;-71
2021/09/06 11:57:33;;;;;;;6.40;5.85;;;23.50;99.90;;;;;;5087454;28;20203;-71
2021/09/06 12:00:00;;;;;;;6.72;5.75;;;23.40;99.90;;;;;;5087710;28;20209;-71
2021/09/06 12:02:27;;;;;;;9.07;6.70;;;23.60;99.90;;;;;;5087521;28;20203;-71
2021/09/06 12:05:08;;;;;;;6.20;5.70;;;23.60;99.90;;;;;;5087718;28;20292;-72
2021/09/06 12:07:46;;;;;;;8.00;7.20;;;23.80;99.90;;;;;;5087656;28;20285;-71
2021/09/06 12:10:27;;;;;;;8.40;7.55;;;24.00;99.90;;;;;;5087818;28;20231;-71
2021/09/06 12:13:01;;;;;;;8.10;7.30;;;23.90;99.90;;;;;;5088115;28;20203;-73
2021/09/06 12:15:29;;;;;;;9.48;7.28;;;23.80;99.90;;;;;;5087936;28;20222;-75
2021/09/06 12:18:07;;;;;;;16.42;7.43;;;23.80;99.90;;;;;;5087889;28;20211;-71
2021/09/06 12:20:38;;;;;;;7.50;6.68;;;23.60;99.90;;;;;;5087562;28;20542;-70
2021/09/06 12:23:05;;;;;;;7.68;6.95;;;23.60;99.90;;;;;;5087654;28;20248;-70
2021/09/06 12:25:33;;;;;;;7.60;6.90;;;23.60;99.90;;;;;;5087206;28;20661;-71
2021/09/06 12:28:10;;;;;;;7.43;6.72;;;23.40;99.90;;;;;;5087688;28;20213;-72
2021/09/06 12:30:37;;;;;;;7.47;6.82;;;23.40;99.90;;;;;;5087543;28;20615;-71
2021/09/06 12:33:03;;;;;;;9.02;6.60;;;23.50;99.90;;;;;;5087622;28;20214;-70
2021/09/06 12:35:30;;;;;;;6.97;6.25;;;23.40;99.90;;;;;;5086600;28;20225;-70
2021/09/06 12:37:56;;;;;;;7.13;6.43;;;23.40;99.90;;;;;;5087648;28;20279;-71
2021/09/06 12:40:23;;;;;;;8.38;6.65;;;23.40;99.90;;;;;;5087257;28;20591;-72
2021/09/06 12:42:51;;;;;;;6.78;6.10;;;23.50;99.90;;;;;;5087086;28;20209;-70
2021/09/06 12:45:18;;;;;;;6.93;6.13;;;23.40;99.90;;;;;;5087411;28;20211;-70
2021/09/06 12:47:45;;;;;;;7.93;6.20;;;23.60;99.90;;;;;;5087535;28;20260;-71
2021/09/06 12:50:12;;;;;;;9.43;6.45;;;23.90;99.90;;;;;;5087536;28;20218;-72